sensor_id;sensor_type;location;lat;lon;timestamp;pressure;altitude;pressure_sealevel;temperature;humidity
38022;BME280;23832;43.216;27.946;2023-05-02T00:00:36;101408.97;;;16.53;45.30
38022;BME280;23832;43.216;27.946;2023-05-02T00:02:38;101405.13;;;16.34;45.19
38022;BME280;23832;43.216;27.946;2023-05-02T00:04:40;101404.72;;;16.09;45.76
38022;BME280;23832;43.216;27.946;2023-05-02T00:06:42;101411.09;;;16.15;45.46
38022;BME280;23832;43.216;27.946;2023-05-02T00:08:45;101403.75;;;16.17;45.29
38022;BME280;23832;43.216;27.946;2023-05-02T00:10:48;101400.72;;;16.20;44.98
38022;BME280;23832;43.216;27.946;2023-05-02T00:12:50;101396.66;;;16.24;44.79
38022;BME280;23832;43.216;27.946;2023-05-02T00:14:54;101411.09;;;16.15;44.75
38022;BME280;23832;43.216;27.946;2023-05-02T00:16:56;101412.81;;;16.23;44.50
38022;BME280;23832;43.216;27.946;2023-05-02T00:18:59;101413.84;;;16.00;44.87
38022;BME280;23832;43.216;27.946;2023-05-02T00:21:01;101417.75;;;15.83;45.42
38022;BME280;23832;43.216;27.946;2023-05-02T00:23:02;101418.78;;;15.67;45.72
38022;BME280;23832;43.216;27.946;2023-05-02T00:25:05;101446.00;;;15.69;45.76
38022;BME280;23832;43.216;27.946;2023-05-02T00:27:07;101425.13;;;15.51;45.83
38022;BME280;23832;43.216;27.946;2023-05-02T00:29:10;101419.81;;;15.51;46.07
38022;BME280;23832;43.216;27.946;2023-05-02T00:31:13;101427.84;;;15.58;46.06
38022;BME280;23832;43.216;27.946;2023-05-02T00:33:14;101422.25;;;15.53;46.06
38022;BME280;23832;43.216;27.946;2023-05-02T00:35:17;101426.03;;;15.44;46.06
38022;BME280;23832;43.216;27.946;2023-05-02T00:37:19;101423.47;;;15.50;45.63
38022;BME280;23832;43.216;27.946;2023-05-02T00:39:21;101419.91;;;15.94;45.10
38022;BME280;23832;43.216;27.946;2023-05-02T00:41:25;101419.22;;;16.07;45.04
38022;BME280;23832;43.216;27.946;2023-05-02T00:43:29;101430.22;;;16.25;44.72
38022;BME280;23832;43.216;27.946;2023-05-02T00:45:31;101429.91;;;16.13;45.51
38022;BME280;23832;43.216;27.946;2023-05-02T00:47:34;101425.19;;;16.09;45.64
38022;BME280;23832;43.216;27.946;2023-05-02T00:49:36;101429.59;;;16.23;45.27
38022;BME280;23832;43.216;27.946;2023-05-02T00:51:38;101426.03;;;16.16;45.36
38022;BME280;23832;43.216;27.946;2023-05-02T00:53:48;101417.91;;;15.81;46.07
38022;BME280;23832;43.216;27.946;2023-05-02T00:55:51;101422.81;;;15.63;46.42
38022;BME280;23832;43.216;27.946;2023-05-02T00:57:54;101422.09;;;15.69;45.87
38022;BME280;23832;43.216;27.946;2023-05-02T00:59:56;101430.31;;;15.59;45.90
38022;BME280;23832;43.216;27.946;2023-05-02T01:02:01;101423.38;;;15.58;45.59
38022;BME280;23832;43.216;27.946;2023-05-02T01:04:10;101419.19;;;15.85;45.42
38022;BME280;23832;43.216;27.946;2023-05-02T01:06:18;101421.94;;;15.92;44.81
38022;BME280;23832;43.216;27.946;2023-05-02T01:08:28;101422.19;;;15.97;44.89
38022;BME280;23832;43.216;27.946;2023-05-02T01:10:43;101416.50;;;16.00;44.92
38022;BME280;23832;43.216;27.946;2023-05-02T01:12:51;101418.31;;;15.78;44.87
38022;BME280;23832;43.216;27.946;2023-05-02T01:14:55;101421.91;;;15.56;45.12
38022;BME280;23832;43.216;27.946;2023-05-02T01:16:58;101414.63;;;15.14;46.01
38022;BME280;23832;43.216;27.946;2023-05-02T01:19:03;101415.81;;;15.11;45.97
38022;BME280;23832;43.216;27.946;2023-05-02T01:21:08;101411.31;;;14.97;46.17
38022;BME280;23832;43.216;27.946;2023-05-02T01:23:12;101409.84;;;14.80;46.43
38022;BME280;23832;43.216;27.946;2023-05-02T01:25:24;101412.22;;;14.74;46.54
38022;BME280;23832;43.216;27.946;2023-05-02T01:27:30;101416.34;;;15.07;46.05
38022;BME280;23832;43.216;27.946;2023-05-02T01:29:38;101418.63;;;15.24;45.63
38022;BME280;23832;43.216;27.946;2023-05-02T01:31:42;101417.88;;;15.45;45.16
38022;BME280;23832;43.216;27.946;2023-05-02T01:33:45;101416.59;;;15.41;44.99
38022;BME280;23832;43.216;27.946;2023-05-02T01:35:52;101417.06;;;15.45;45.10
38022;BME280;23832;43.216;27.946;2023-05-02T01:37:55;101414.47;;;15.51;44.78
38022;BME280;23832;43.216;27.946;2023-05-02T01:39:58;101411.91;;;15.58;44.21
38022;BME280;23832;43.216;27.946;2023-05-02T01:42:02;101407.63;;;15.57;44.12
38022;BME280;23832;43.216;27.946;2023-05-02T01:44:05;101407.78;;;15.70;44.30
38022;BME280;23832;43.216;27.946;2023-05-02T01:46:11;101397.34;;;15.69;44.24
38022;BME280;23832;43.216;27.946;2023-05-02T01:48:15;101403.66;;;15.68;44.00
38022;BME280;23832;43.216;27.946;2023-05-02T01:50:22;101344.25;;;15.39;44.07
38022;BME280;23832;43.216;27.946;2023-05-02T01:52:24;101409.06;;;15.74;44.42
38022;BME280;23832;43.216;27.946;2023-05-02T01:54:28;101415.13;;;15.68;44.61
38022;BME280;23832;43.216;27.946;2023-05-02T01:56:31;101405.75;;;15.72;44.51
38022;BME280;23832;43.216;27.946;2023-05-02T01:58:34;101413.09;;;15.70;44.60
38022;BME280;23832;43.216;27.946;2023-05-02T02:00:37;101407.63;;;15.57;44.51
38022;BME280;23832;43.216;27.946;2023-05-02T02:02:45;101405.53;;;15.38;44.65
38022;BME280;23832;43.216;27.946;2023-05-02T02:04:48;101409.03;;;15.09;45.37
38022;BME280;23832;43.216;27.946;2023-05-02T02:06:53;101413.22;;;15.18;45.32
38022;BME280;23832;43.216;27.946;2023-05-02T02:08:56;101414.81;;;15.12;45.09
38022;BME280;23832;43.216;27.946;2023-05-02T02:10:59;101410.69;;;14.95;45.60
38022;BME280;23832;43.216;27.946;2023-05-02T02:13:05;101410.50;;;14.96;45.69
38022;BME280;23832;43.216;27.946;2023-05-02T02:15:10;101409.31;;;15.14;45.54
38022;BME280;23832;43.216;27.946;2023-05-02T02:17:15;101411.97;;;15.14;45.61
38022;BME280;23832;43.216;27.946;2023-05-02T02:19:23;101416.06;;;14.72;46.74
38022;BME280;23832;43.216;27.946;2023-05-02T02:21:25;101417.81;;;14.80;46.46
38022;BME280;23832;43.216;27.946;2023-05-02T02:23:29;101411.28;;;14.82;46.46
38022;BME280;23832;43.216;27.946;2023-05-02T02:25:33;101418.81;;;15.23;45.85
38022;BME280;23832;43.216;27.946;2023-05-02T02:27:36;101414.97;;;15.25;45.58
38022;BME280;23832;43.216;27.946;2023-05-02T02:29:39;101421.94;;;15.26;45.54
38022;BME280;23832;43.216;27.946;2023-05-02T02:31:41;101417.38;;;15.20;45.86
38022;BME280;23832;43.216;27.946;2023-05-02T02:33:43;101419.38;;;15.03;46.19
38022;BME280;23832;43.216;27.946;2023-05-02T02:35:49;101428.72;;;15.29;45.29
38022;BME280;23832;43.216;27.946;2023-05-02T02:37:56;101424.06;;;15.31;45.17
38022;BME280;23832;43.216;27.946;2023-05-02T02:40:02;101428.28;;;15.11;45.50
38022;BME280;23832;43.216;27.946;2023-05-02T02:42:09;101434.00;;;14.70;46.28
38022;BME280;23832;43.216;27.946;2023-05-02T02:44:16;101430.69;;;14.83;45.73
38022;BME280;23832;43.216;27.946;2023-05-02T02:46:26;101427.25;;;14.97;45.36
38022;BME280;23832;43.216;27.946;2023-05-02T02:48:31;101422.88;;;15.04;45.54
38022;BME280;23832;43.216;27.946;2023-05-02T02:50:45;101423.69;;;15.04;45.56
38022;BME280;23832;43.216;27.946;2023-05-02T02:52:54;101430.84;;;15.04;45.84
38022;BME280;23832;43.216;27.946;2023-05-02T02:55:06;101433.84;;;15.16;45.43
38022;BME280;23832;43.216;27.946;2023-05-02T02:57:14;101437.06;;;15.11;45.46
38022;BME280;23832;43.216;27.946;2023-05-02T02:59:18;101443.72;;;15.07;45.16
38022;BME280;23832;43.216;27.946;2023-05-02T03:01:21;101439.44;;;15.21;44.76
38022;BME280;23832;43.216;27.946;2023-05-02T03:03:25;101443.34;;;14.81;45.37
38022;BME280;23832;43.216;27.946;2023-05-02T03:05:30;101444.00;;;14.97;45.12
38022;BME280;23832;43.216;27.946;2023-05-02T03:07:33;101452.53;;;15.22;44.82
38022;BME280;23832;43.216;27.946;2023-05-02T03:09:41;101449.97;;;15.14;45.19
38022;BME280;23832;43.216;27.946;2023-05-02T03:11:43;101445.13;;;15.32;44.73
38022;BME280;23832;43.216;27.946;2023-05-02T03:13:45;101458.00;;;15.36;45.00
38022;BME280;23832;43.216;27.946;2023-05-02T03:18:11;101455.75;;;15.47;44.77
38022;BME280;23832;43.216;27.946;2023-05-02T03:20:13;101456.63;;;15.54;45.19
38022;BME280;23832;43.216;27.946;2023-05-02T03:22:15;101456.09;;;15.59;45.13
38022;BME280;23832;43.216;27.946;2023-05-02T03:24:19;101453.63;;;15.57;45.42
38022;BME280;23832;43.216;27.946;2023-05-02T03:26:23;101464.72;;;15.61;45.44
38022;BME280;23832;43.216;27.946;2023-05-02T03:28:25;101475.06;;;15.71;44.95
38022;BME280;23832;43.216;27.946;2023-05-02T03:30:30;101470.22;;;15.74;44.96
38022;BME280;23832;43.216;27.946;2023-05-02T03:32:32;101473.50;;;15.76;44.57
38022;BME280;23832;43.216;27.946;2023-05-02T03:34:34;101473.75;;;15.81;44.76
38022;BME280;23832;43.216;27.946;2023-05-02T03:36:37;101479.31;;;15.65;44.91
38022;BME280;23832;43.216;27.946;2023-05-02T03:38:39;101482.38;;;15.83;44.79
38022;BME280;23832;43.216;27.946;2023-05-02T03:40:42;101480.44;;;15.92;44.76
38022;BME280;23832;43.216;27.946;2023-05-02T03:42:47;101485.47;;;16.02;44.58
38022;BME280;23832;43.216;27.946;2023-05-02T03:44:50;101482.84;;;16.08;44.42
38022;BME280;23832;43.216;27.946;2023-05-02T03:46:52;101488.63;;;16.12;44.30
38022;BME280;23832;43.216;27.946;2023-05-02T03:48:56;101491.38;;;16.18;44.74
38022;BME280;23832;43.216;27.946;2023-05-02T03:50:58;101493.06;;;16.26;45.39
38022;BME280;23832;43.216;27.946;2023-05-02T03:53:02;101498.91;;;16.36;45.57
38022;BME280;23832;43.216;27.946;2023-05-02T03:55:04;101494.66;;;16.42;45.68
38022;BME280;23832;43.216;27.946;2023-05-02T03:57:07;101501.00;;;16.41;46.38
38022;BME280;23832;43.216;27.946;2023-05-02T03:59:13;101502.59;;;16.57;45.83
38022;BME280;23832;43.216;27.946;2023-05-02T04:01:17;101508.94;;;16.77;45.61
38022;BME280;23832;43.216;27.946;2023-05-02T04:03:19;101505.09;;;16.86;45.31
38022;BME280;23832;43.216;27.946;2023-05-02T04:05:21;101502.72;;;16.91;44.69
38022;BME280;23832;43.216;27.946;2023-05-02T04:07:25;101511.53;;;16.92;44.74
38022;BME280;23832;43.216;27.946;2023-05-02T04:09:29;101504.97;;;16.94;44.92
38022;BME280;23832;43.216;27.946;2023-05-02T04:11:33;101503.88;;;16.82;45.51
38022;BME280;23832;43.216;27.946;2023-05-02T04:13:37;101511.66;;;17.12;45.63
38022;BME280;23832;43.216;27.946;2023-05-02T04:15:41;101517.31;;;17.30;45.59
38022;BME280;23832;43.216;27.946;2023-05-02T04:17:47;101510.75;;;17.33;45.54
38022;BME280;23832;43.216;27.946;2023-05-02T04:19:49;101516.22;;;17.52;45.21
38022;BME280;23832;43.216;27.946;2023-05-02T04:21:51;101509.72;;;17.62;45.00
38022;BME280;23832;43.216;27.946;2023-05-02T04:23:52;101515.88;;;17.69;45.22
38022;BME280;23832;43.216;27.946;2023-05-02T04:25:56;101511.28;;;17.97;44.72
38022;BME280;23832;43.216;27.946;2023-05-02T04:27:58;101511.19;;;18.25;44.66
38022;BME280;23832;43.216;27.946;2023-05-02T04:30:00;101512.84;;;18.39;44.56
38022;BME280;23832;43.216;27.946;2023-05-02T04:32:05;101515.75;;;18.51;44.46
38022;BME280;23832;43.216;27.946;2023-05-02T04:34:07;101512.91;;;18.73;44.21
38022;BME280;23832;43.216;27.946;2023-05-02T04:36:09;101510.03;;;18.94;44.18
38022;BME280;23832;43.216;27.946;2023-05-02T04:38:11;101506.31;;;19.08;44.14
38022;BME280;23832;43.216;27.946;2023-05-02T04:40:13;101506.94;;;19.23;44.07
38022;BME280;23832;43.216;27.946;2023-05-02T04:42:15;101507.31;;;19.34;43.99
38022;BME280;23832;43.216;27.946;2023-05-02T04:44:18;101509.53;;;19.56;43.62
38022;BME280;23832;43.216;27.946;2023-05-02T04:46:20;101512.56;;;19.73;43.31
38022;BME280;23832;43.216;27.946;2023-05-02T04:48:23;101506.59;;;19.78;42.78
38022;BME280;23832;43.216;27.946;2023-05-02T04:50:25;101514.31;;;19.93;42.63
38022;BME280;23832;43.216;27.946;2023-05-02T04:52:29;101509.50;;;20.08;42.22
38022;BME280;23832;43.216;27.946;2023-05-02T04:54:31;101521.09;;;20.33;41.56
38022;BME280;23832;43.216;27.946;2023-05-02T04:56:34;101513.34;;;20.57;41.22
38022;BME280;23832;43.216;27.946;2023-05-02T04:58:36;101520.44;;;20.76;41.05
38022;BME280;23832;43.216;27.946;2023-05-02T05:00:38;101517.72;;;21.01;40.75
38022;BME280;23832;43.216;27.946;2023-05-02T05:02:40;101526.91;;;21.12;40.93
38022;BME280;23832;43.216;27.946;2023-05-02T05:04:44;101533.16;;;21.06;41.37
38022;BME280;23832;43.216;27.946;2023-05-02T05:06:46;101530.09;;;20.46;41.75
38022;BME280;23832;43.216;27.946;2023-05-02T05:08:50;101533.13;;;20.56;41.58
38022;BME280;23832;43.216;27.946;2023-05-02T05:10:53;101533.28;;;21.11;41.00
38022;BME280;23832;43.216;27.946;2023-05-02T05:12:55;101539.56;;;21.48;40.37
38022;BME280;23832;43.216;27.946;2023-05-02T05:14:57;101531.88;;;21.33;40.51
38022;BME280;23832;43.216;27.946;2023-05-02T05:16:59;101531.13;;;21.44;40.03
38022;BME280;23832;43.216;27.946;2023-05-02T05:19:01;101539.56;;;21.48;40.16
38022;BME280;23832;43.216;27.946;2023-05-02T05:21:06;101534.28;;;21.41;40.15
38022;BME280;23832;43.216;27.946;2023-05-02T05:23:08;101536.78;;;21.54;39.80
38022;BME280;23832;43.216;27.946;2023-05-02T05:25:11;101540.69;;;21.40;40.50
38022;BME280;23832;43.216;27.946;2023-05-02T05:27:15;101546.19;;;21.82;40.25
38022;BME280;23832;43.216;27.946;2023-05-02T05:29:17;101557.81;;;22.13;40.76
38022;BME280;23832;43.216;27.946;2023-05-02T05:31:19;101552.19;;;22.44;40.52
38022;BME280;23832;43.216;27.946;2023-05-02T05:33:23;101557.59;;;22.14;40.94
38022;BME280;23832;43.216;27.946;2023-05-02T05:35:26;101558.00;;;22.29;40.77
38022;BME280;23832;43.216;27.946;2023-05-02T05:37:29;101554.94;;;22.26;41.45
38022;BME280;23832;43.216;27.946;2023-05-02T05:39:32;101559.81;;;22.17;41.91
38022;BME280;23832;43.216;27.946;2023-05-02T05:41:34;101562.41;;;22.05;42.52
38022;BME280;23832;43.216;27.946;2023-05-02T05:43:37;101563.81;;;22.56;42.27
38022;BME280;23832;43.216;27.946;2023-05-02T05:45:40;101560.75;;;22.94;41.66
38022;BME280;23832;43.216;27.946;2023-05-02T05:47:44;101567.41;;;23.15;41.69
38022;BME280;23832;43.216;27.946;2023-05-02T05:49:46;101571.25;;;22.96;41.73
38022;BME280;23832;43.216;27.946;2023-05-02T05:51:49;101568.00;;;23.06;41.04
38022;BME280;23832;43.216;27.946;2023-05-02T05:53:52;101565.91;;;23.19;40.46
38022;BME280;23832;43.216;27.946;2023-05-02T05:55:54;101568.34;;;23.33;40.78
38022;BME280;23832;43.216;27.946;2023-05-02T05:57:58;101571.50;;;23.06;41.37
38022;BME280;23832;43.216;27.946;2023-05-02T06:00:01;101575.00;;;23.18;41.39
38022;BME280;23832;43.216;27.946;2023-05-02T06:02:03;101572.22;;;23.25;40.64
38022;BME280;23832;43.216;27.946;2023-05-02T06:04:05;101572.56;;;22.22;42.02
38022;BME280;23832;43.216;27.946;2023-05-02T06:06:07;101576.16;;;22.99;41.75
38022;BME280;23832;43.216;27.946;2023-05-02T06:08:09;101585.41;;;23.50;40.82
38022;BME280;23832;43.216;27.946;2023-05-02T06:10:12;101584.72;;;23.43;40.74
38022;BME280;23832;43.216;27.946;2023-05-02T06:12:15;101576.34;;;22.32;42.00
38022;BME280;23832;43.216;27.946;2023-05-02T06:14:16;101579.13;;;21.89;43.85
38022;BME280;23832;43.216;27.946;2023-05-02T06:16:19;101578.84;;;22.16;43.86
38022;BME280;23832;43.216;27.946;2023-05-02T06:18:20;101576.97;;;22.46;43.16
38022;BME280;23832;43.216;27.946;2023-05-02T06:20:22;101574.44;;;22.93;42.48
38022;BME280;23832;43.216;27.946;2023-05-02T06:22:25;101581.00;;;22.67;43.07
38022;BME280;23832;43.216;27.946;2023-05-02T06:24:27;101580.56;;;22.82;43.02
38022;BME280;23832;43.216;27.946;2023-05-02T06:26:31;101578.91;;;22.81;43.26
38022;BME280;23832;43.216;27.946;2023-05-02T06:28:33;101586.63;;;22.65;43.11
38022;BME280;23832;43.216;27.946;2023-05-02T06:30:35;101578.94;;;22.39;43.46
38022;BME280;23832;43.216;27.946;2023-05-02T06:32:37;101592.06;;;22.89;43.28
38022;BME280;23832;43.216;27.946;2023-05-02T06:34:41;101592.44;;;23.51;42.50
38022;BME280;23832;43.216;27.946;2023-05-02T06:36:43;101595.56;;;23.95;41.94
38022;BME280;23832;43.216;27.946;2023-05-02T06:38:46;101591.50;;;23.34;42.77
38022;BME280;23832;43.216;27.946;2023-05-02T06:40:48;101597.16;;;24.07;41.93
38022;BME280;23832;43.216;27.946;2023-05-02T06:42:52;101595.38;;;23.49;41.84
38022;BME280;23832;43.216;27.946;2023-05-02T06:44:55;101600.75;;;23.61;41.85
38022;BME280;23832;43.216;27.946;2023-05-02T06:46:57;101600.41;;;23.69;41.24
38022;BME280;23832;43.216;27.946;2023-05-02T06:48:59;101613.03;;;23.81;40.76
38022;BME280;23832;43.216;27.946;2023-05-02T06:51:02;101610.25;;;22.75;43.68
38022;BME280;23832;43.216;27.946;2023-05-02T06:53:05;101608.81;;;23.14;44.39
38022;BME280;23832;43.216;27.946;2023-05-02T06:55:07;101611.38;;;23.79;43.21
38022;BME280;23832;43.216;27.946;2023-05-02T06:57:11;101619.88;;;22.53;45.57
38022;BME280;23832;43.216;27.946;2023-05-02T06:59:15;101618.53;;;22.14;46.58
38022;BME280;23832;43.216;27.946;2023-05-02T07:01:18;101620.88;;;22.40;46.53
38022;BME280;23832;43.216;27.946;2023-05-02T07:03:22;101625.63;;;22.86;44.55
38022;BME280;23832;43.216;27.946;2023-05-02T07:05:24;101620.06;;;23.11;43.02
38022;BME280;23832;43.216;27.946;2023-05-02T07:07:27;101629.47;;;22.90;45.54
38022;BME280;23832;43.216;27.946;2023-05-02T07:09:28;101631.81;;;22.87;43.72
38022;BME280;23832;43.216;27.946;2023-05-02T07:11:30;101637.25;;;23.10;43.79
38022;BME280;23832;43.216;27.946;2023-05-02T07:13:33;101629.50;;;23.96;42.10
38022;BME280;23832;43.216;27.946;2023-05-02T07:15:36;101633.06;;;23.61;42.33
38022;BME280;23832;43.216;27.946;2023-05-02T07:17:38;101642.63;;;23.92;43.05
38022;BME280;23832;43.216;27.946;2023-05-02T07:19:41;101633.63;;;23.87;43.51
38022;BME280;23832;43.216;27.946;2023-05-02T07:21:43;101633.94;;;24.54;43.08
38022;BME280;23832;43.216;27.946;2023-05-02T07:23:45;101630.69;;;24.85;42.67
38022;BME280;23832;43.216;27.946;2023-05-02T07:25:48;101641.91;;;24.49;43.61
38022;BME280;23832;43.216;27.946;2023-05-02T07:27:50;101637.38;;;24.66;40.80
38022;BME280;23832;43.216;27.946;2023-05-02T07:29:52;101641.59;;;24.62;41.59
38022;BME280;23832;43.216;27.946;2023-05-02T07:31:56;101640.09;;;25.50;40.99
38022;BME280;23832;43.216;27.946;2023-05-02T07:33:58;101644.09;;;25.81;40.16
38022;BME280;23832;43.216;27.946;2023-05-02T07:36:00;101648.50;;;26.80;37.90
38022;BME280;23832;43.216;27.946;2023-05-02T07:38:02;101651.72;;;26.06;36.43
38022;BME280;23832;43.216;27.946;2023-05-02T07:40:05;101642.41;;;25.41;34.79
38022;BME280;23832;43.216;27.946;2023-05-02T07:42:08;101646.94;;;25.19;34.82
38022;BME280;23832;43.216;27.946;2023-05-02T07:44:14;101646.50;;;25.99;33.51
38022;BME280;23832;43.216;27.946;2023-05-02T07:46:18;101650.16;;;24.87;32.45
38022;BME280;23832;43.216;27.946;2023-05-02T07:48:22;101643.50;;;24.21;32.50
38022;BME280;23832;43.216;27.946;2023-05-02T07:50:25;101655.38;;;26.66;30.97
38022;BME280;23832;43.216;27.946;2023-05-02T07:52:27;101646.44;;;27.24;30.52
38022;BME280;23832;43.216;27.946;2023-05-02T07:54:32;101644.53;;;26.93;29.75
38022;BME280;23832;43.216;27.946;2023-05-02T07:56:34;101652.34;;;27.58;29.75
38022;BME280;23832;43.216;27.946;2023-05-02T07:58:37;101647.47;;;26.37;29.50
38022;BME280;23832;43.216;27.946;2023-05-02T08:00:39;101642.91;;;26.16;29.05
38022;BME280;23832;43.216;27.946;2023-05-02T08:02:40;101648.19;;;26.27;29.50
38022;BME280;23832;43.216;27.946;2023-05-02T08:04:45;101655.53;;;27.13;28.40
38022;BME280;23832;43.216;27.946;2023-05-02T08:06:47;101653.22;;;26.19;28.66
38022;BME280;23832;43.216;27.946;2023-05-02T08:08:49;101642.31;;;26.57;28.19
38022;BME280;23832;43.216;27.946;2023-05-02T08:10:52;101639.38;;;27.65;27.87
38022;BME280;23832;43.216;27.946;2023-05-02T08:12:54;101641.75;;;27.99;27.71
38022;BME280;23832;43.216;27.946;2023-05-02T08:14:58;101649.09;;;27.14;27.92
38022;BME280;23832;43.216;27.946;2023-05-02T08:17:05;101638.03;;;26.62;28.25
38022;BME280;23832;43.216;27.946;2023-05-02T08:19:07;101648.94;;;26.01;28.93
38022;BME280;23832;43.216;27.946;2023-05-02T08:21:12;101645.69;;;26.70;29.02
38022;BME280;23832;43.216;27.946;2023-05-02T08:23:14;101650.69;;;28.98;27.28
38022;BME280;23832;43.216;27.946;2023-05-02T08:25:17;101652.53;;;29.68;26.62
38022;BME280;23832;43.216;27.946;2023-05-02T08:27:19;101657.72;;;28.68;27.12
38022;BME280;23832;43.216;27.946;2023-05-02T08:29:22;101654.19;;;29.59;27.14
38022;BME280;23832;43.216;27.946;2023-05-02T08:31:24;101651.34;;;29.95;27.47
38022;BME280;23832;43.216;27.946;2023-05-02T08:33:28;101653.38;;;28.88;27.63
38022;BME280;23832;43.216;27.946;2023-05-02T08:35:34;101649.59;;;29.24;26.64
38022;BME280;23832;43.216;27.946;2023-05-02T08:37:37;101653.34;;;28.52;27.59
38022;BME280;23832;43.216;27.946;2023-05-02T08:39:39;101650.13;;;29.36;27.07
38022;BME280;23832;43.216;27.946;2023-05-02T08:41:42;101657.72;;;28.68;28.86
38022;BME280;23832;43.216;27.946;2023-05-02T08:43:44;101651.22;;;29.51;28.07
38022;BME280;23832;43.216;27.946;2023-05-02T08:45:49;101676.47;;;29.10;28.04
38022;BME280;23832;43.216;27.946;2023-05-02T08:47:56;101647.88;;;29.79;27.13
38022;BME280;23832;43.216;27.946;2023-05-02T08:49:59;101654.72;;;29.66;27.38
38022;BME280;23832;43.216;27.946;2023-05-02T08:52:03;101655.50;;;29.77;26.55
38022;BME280;23832;43.216;27.946;2023-05-02T08:54:09;101650.22;;;30.01;23.20
38022;BME280;23832;43.216;27.946;2023-05-02T08:56:11;101644.91;;;29.65;23.75
38022;BME280;23832;43.216;27.946;2023-05-02T08:58:13;101645.28;;;30.68;24.71
38022;BME280;23832;43.216;27.946;2023-05-02T09:00:16;101648.25;;;31.87;23.19
38022;BME280;23832;43.216;27.946;2023-05-02T09:02:21;101645.53;;;31.34;22.46
38022;BME280;23832;43.216;27.946;2023-05-02T09:04:24;101644.59;;;30.42;23.13
38022;BME280;23832;43.216;27.946;2023-05-02T09:06:32;101641.44;;;30.24;22.40
38022;BME280;23832;43.216;27.946;2023-05-02T09:08:34;101655.78;;;28.53;23.73
38022;BME280;23832;43.216;27.946;2023-05-02T09:10:38;101652.16;;;28.27;24.78
38022;BME280;23832;43.216;27.946;2023-05-02T09:12:43;101645.44;;;28.40;25.77
38022;BME280;23832;43.216;27.946;2023-05-02T09:14:45;101650.50;;;28.16;25.05
38022;BME280;23832;43.216;27.946;2023-05-02T09:16:48;101655.22;;;29.74;26.05
38022;BME280;23832;43.216;27.946;2023-05-02T09:18:51;101651.59;;;30.04;25.84
38022;BME280;23832;43.216;27.946;2023-05-02T09:20:54;101653.59;;;29.73;25.39
38022;BME280;23832;43.216;27.946;2023-05-02T09:22:56;101659.44;;;30.10;26.80
38022;BME280;23832;43.216;27.946;2023-05-02T09:24:58;101652.06;;;30.21;27.57
38022;BME280;23832;43.216;27.946;2023-05-02T09:27:03;101652.56;;;29.48;26.25
38022;BME280;23832;43.216;27.946;2023-05-02T09:29:05;101657.72;;;28.78;27.45
38022;BME280;23832;43.216;27.946;2023-05-02T09:31:10;101650.91;;;29.37;26.50
38022;BME280;23832;43.216;27.946;2023-05-02T09:33:11;101654.50;;;30.22;25.77
38022;BME280;23832;43.216;27.946;2023-05-02T09:35:13;101648.00;;;31.02;26.05
38022;BME280;23832;43.216;27.946;2023-05-02T09:37:33;101648.75;;;29.29;27.61
38022;BME280;23832;43.216;27.946;2023-05-02T09:39:35;101654.72;;;28.70;26.98
38022;BME280;23832;43.216;27.946;2023-05-02T09:41:42;101650.91;;;28.50;28.45
38022;BME280;23832;43.216;27.946;2023-05-02T09:43:55;101659.09;;;29.57;28.01
38022;BME280;23832;43.216;27.946;2023-05-02T09:45:58;101664.81;;;29.15;28.68
38022;BME280;23832;43.216;27.946;2023-05-02T09:48:03;101652.25;;;27.85;29.84
38022;BME280;23832;43.216;27.946;2023-05-02T09:50:05;101646.97;;;28.16;28.89
38022;BME280;23832;43.216;27.946;2023-05-02T09:52:10;101655.25;;;27.89;29.02
38022;BME280;23832;43.216;27.946;2023-05-02T09:54:13;101647.63;;;27.81;30.41
38022;BME280;23832;43.216;27.946;2023-05-02T09:56:15;101654.13;;;27.80;31.73
38022;BME280;23832;43.216;27.946;2023-05-02T09:58:21;101644.09;;;27.80;28.86
38022;BME280;23832;43.216;27.946;2023-05-02T10:00:41;101643.06;;;27.49;31.21
38022;BME280;23832;43.216;27.946;2023-05-02T10:02:43;101651.25;;;27.54;33.03
38022;BME280;23832;43.216;27.946;2023-05-02T10:04:47;101646.00;;;28.42;33.63
38022;BME280;23832;43.216;27.946;2023-05-02T10:06:49;101651.19;;;28.59;31.75
38022;BME280;23832;43.216;27.946;2023-05-02T10:08:52;101646.78;;;30.84;27.20
38022;BME280;23832;43.216;27.946;2023-05-02T10:10:56;101639.81;;;29.28;29.64
38022;BME280;23832;43.216;27.946;2023-05-02T10:13:07;101646.34;;;29.02;28.47
38022;BME280;23832;43.216;27.946;2023-05-02T10:15:09;101648.88;;;30.04;28.28
38022;BME280;23832;43.216;27.946;2023-05-02T10:17:19;101645.22;;;28.82;29.22
38022;BME280;23832;43.216;27.946;2023-05-02T10:19:23;101648.09;;;29.88;27.40
38022;BME280;23832;43.216;27.946;2023-05-02T10:21:28;101640.94;;;30.67;25.16
38022;BME280;23832;43.216;27.946;2023-05-02T10:23:32;101645.50;;;28.86;30.56
38022;BME280;23832;43.216;27.946;2023-05-02T10:25:35;101650.13;;;29.01;30.93
38022;BME280;23832;43.216;27.946;2023-05-02T10:27:37;101647.25;;;29.98;30.53
38022;BME280;23832;43.216;27.946;2023-05-02T10:29:47;101647.63;;;30.35;30.66
38022;BME280;23832;43.216;27.946;2023-05-02T10:31:49;101646.56;;;29.46;32.86
38022;BME280;23832;43.216;27.946;2023-05-02T10:33:57;101648.34;;;29.91;30.91
38022;BME280;23832;43.216;27.946;2023-05-02T10:36:00;101646.25;;;28.41;30.01
38022;BME280;23832;43.216;27.946;2023-05-02T10:38:03;101642.88;;;28.08;31.21
38022;BME280;23832;43.216;27.946;2023-05-02T10:40:08;101640.69;;;28.05;28.73